KHOT/HOT METAR and TAF weather

Enter ICAO airport designator
Station Type Date Time Source
KHOT METAR 2019/02/20 17:53 UTC NOAA

KHOT 201753Z AUTO VRB06KT 10SM SCT018 09/05 A2994 RMK AO2 SLP139 T00890050 10089 20044 50006


Station Type Date Time Source
KHOT Decoded METAR 2019/02/20 17:53 UTC NOAA

HOT SPRINGS MEMORIAL FIELD, AR, United States (KHOT) 34-29N 093-06W 162M
Feb 20, 2019 - 12:53 PM EST / 2019.02.20 1753 UTC
Wind: Variable at 7 MPH (6 KT):0
Visibility: 10 mile(s):0
Sky conditions: partly cloudy
Temperature: 48.0 F (8.9 C)
Dew Point: 41.0 F (5.0 C)
Relative Humidity: 76%
Pressure (altimeter): 29.94 in. Hg (1013 hPa)
Pressure tendency: 0.02 inches (0.6 hPa) higher than three hours ago
ob: KHOT 201753Z AUTO VRB06KT 10SM SCT018 09/05 A2994 RMK AO2 SLP139 T00890050 10089 20044 50006
cycle: 18

Station Type Date Time Source
KHOT TAF 2019/02/20 18:33 UTC NOAA

TAF KHOT 201730Z 2018/2118 28005KT P6SM BKN015
FM202100 27006KT P6SM SCT020 BKN250
FM210000 VRB03KT P6SM BKN250
FM211300 08003KT P6SM BKN250


Example: see airport list